createdAt,value
2023-04-15T00:01:11.616Z,33.58
2023-04-15T00:03:38.737Z,31.25
2023-04-15T00:06:05.781Z,36.55
2023-04-15T00:08:32.367Z,35.08
2023-04-15T00:11:02.803Z,36.63
2023-04-15T00:13:29.757Z,36.30
2023-04-15T00:15:56.577Z,38.63
2023-04-15T00:18:24.276Z,37.17
2023-04-15T00:20:51.039Z,37.47
2023-04-15T00:23:18.012Z,38.08
2023-04-15T00:25:44.857Z,36.35
2023-04-15T00:28:11.737Z,32.53
2023-04-15T00:30:38.869Z,37.67
2023-04-15T00:33:05.626Z,34.83
2023-04-15T00:35:32.815Z,38.42
2023-04-15T00:37:59.852Z,37.80
2023-04-15T00:40:27.738Z,40.97
2023-04-15T00:42:54.437Z,41.55
2023-04-15T00:45:21.297Z,43.08
2023-04-15T00:47:47.972Z,46.08
2023-04-15T00:50:14.620Z,46.88
2023-04-15T00:52:41.517Z,46.15
2023-04-15T00:55:09.342Z,47.22
2023-04-15T00:57:37.007Z,41.92
2023-04-15T01:00:07.924Z,45.00
2023-04-15T01:02:36.646Z,44.92
2023-04-15T01:05:04.599Z,46.10
2023-04-15T01:07:31.898Z,43.38
2023-04-15T01:10:00.256Z,48.28
2023-04-15T01:12:27.876Z,46.15
2023-04-15T01:14:55.533Z,47.08
2023-04-15T01:17:22.398Z,49.05
2023-04-15T01:19:49.461Z,49.92
2023-04-15T01:22:17.012Z,48.03
2023-04-15T01:24:55.651Z,51.92
2023-04-15T01:27:22.841Z,45.92
2023-04-15T01:29:49.522Z,48.63
2023-04-15T01:32:16.617Z,45.90
2023-04-15T01:34:43.415Z,50.40
2023-04-15T01:37:09.972Z,46.85
2023-04-15T01:39:36.573Z,51.13
2023-04-15T01:42:04.025Z,53.95
2023-04-15T01:44:30.653Z,47.50
2023-04-15T01:46:57.594Z,55.53
2023-04-15T01:49:24.222Z,52.55
2023-04-15T01:51:50.843Z,47.03
2023-04-15T01:54:17.604Z,46.55
2023-04-15T01:56:44.168Z,50.40
2023-04-15T01:59:10.765Z,48.03
2023-04-15T02:01:37.340Z,47.80
2023-04-15T02:04:04.008Z,46.72
2023-04-15T02:06:30.616Z,49.33
2023-04-15T02:08:57.353Z,49.33
2023-04-15T02:11:24.049Z,44.80
2023-04-15T02:13:50.651Z,47.05
2023-04-15T02:16:18.962Z,53.03
2023-04-15T02:18:47.047Z,51.45
2023-04-15T02:21:14.741Z,50.28
2023-04-15T02:23:41.554Z,51.60
2023-04-15T02:26:08.301Z,53.28
2023-04-15T02:28:35.093Z,50.17
2023-04-15T02:31:06.447Z,53.47
2023-04-15T02:33:33.434Z,48.38
2023-04-15T02:36:00.245Z,44.85
2023-04-15T02:38:26.910Z,51.40
2023-04-15T02:40:53.467Z,45.20
2023-04-15T02:43:20.343Z,49.60
2023-04-15T02:45:47.339Z,49.35
2023-04-15T02:48:14.184Z,49.67
2023-04-15T02:50:41.074Z,48.40
2023-04-15T02:53:07.705Z,48.53
2023-04-15T02:55:34.611Z,46.78
2023-04-15T02:58:01.447Z,48.35
2023-04-15T03:00:28.331Z,47.85
2023-04-15T03:02:59.494Z,50.55
2023-04-15T03:05:26.573Z,53.30
2023-04-15T03:07:53.932Z,47.63
2023-04-15T03:10:21.361Z,48.30
2023-04-15T03:12:48.453Z,51.00
2023-04-15T03:15:15.595Z,49.53
2023-04-15T03:17:42.530Z,49.42
2023-04-15T03:20:10.280Z,50.20
2023-04-15T03:22:36.823Z,50.85
2023-04-15T03:25:03.536Z,46.10
2023-04-15T03:27:30.638Z,53.33
2023-04-15T03:29:57.296Z,47.58
2023-04-15T03:32:24.001Z,48.47
2023-04-15T03:34:50.777Z,47.70
2023-04-15T03:37:17.279Z,46.10
2023-04-15T03:39:43.858Z,47.45
2023-04-15T03:42:11.022Z,45.72
2023-04-15T03:44:37.656Z,48.08
2023-04-15T03:47:04.439Z,45.37
2023-04-15T03:49:31.073Z,44.25
2023-04-15T03:51:57.800Z,44.10
2023-04-15T03:54:24.490Z,41.75
2023-04-15T03:56:51.161Z,45.35
2023-04-15T03:59:17.822Z,45.58
2023-04-15T04:01:44.552Z,43.50
2023-04-15T04:04:11.592Z,47.33
2023-04-15T04:06:38.225Z,48.38
2023-04-15T04:09:04.767Z,45.05
2023-04-15T04:11:32.969Z,48.40
2023-04-15T04:13:59.673Z,44.55
2023-04-15T04:16:26.541Z,47.88
2023-04-15T04:18:53.146Z,51.22
2023-04-15T04:21:20.970Z,46.72
2023-04-15T04:23:47.598Z,47.13
2023-04-15T04:26:14.296Z,47.80
2023-04-15T04:28:40.928Z,44.92
2023-04-15T04:31:07.739Z,43.80
2023-04-15T04:33:35.861Z,47.42
2023-04-15T04:36:03.919Z,45.85
2023-04-15T04:38:30.689Z,48.92
2023-04-15T04:40:57.213Z,44.35
2023-04-15T04:43:24.160Z,46.90
2023-04-15T04:45:50.774Z,45.03
2023-04-15T04:48:17.589Z,46.90
2023-04-15T04:50:45.020Z,42.83
2023-04-15T04:53:12.049Z,47.80
2023-04-15T04:55:38.736Z,44.45
2023-04-15T04:58:05.740Z,42.45
2023-04-15T05:00:32.479Z,41.73
2023-04-15T05:02:59.255Z,41.08
2023-04-15T05:05:26.288Z,44.38
2023-04-15T05:07:53.332Z,42.47
2023-04-15T05:10:20.047Z,43.60
2023-04-15T05:12:46.733Z,39.53
2023-04-15T05:15:13.298Z,40.75
2023-04-15T05:17:40.263Z,43.05
2023-04-15T05:20:07.529Z,36.83
2023-04-15T05:22:34.406Z,36.53
2023-04-15T05:25:01.113Z,37.13
2023-04-15T05:27:27.733Z,34.20
2023-04-15T05:29:54.581Z,34.65
2023-04-15T05:32:21.279Z,32.50
2023-04-15T05:34:47.857Z,35.92
2023-04-15T05:37:14.553Z,31.58
2023-04-15T05:39:41.123Z,37.78
2023-04-15T05:42:08.153Z,32.03
2023-04-15T05:44:34.950Z,33.05
2023-04-15T05:47:03.447Z,34.50
2023-04-15T05:49:30.109Z,30.58
2023-04-15T05:51:57.008Z,32.22
2023-04-15T05:54:23.846Z,29.38
2023-04-15T05:56:50.520Z,26.75
2023-04-15T05:59:17.148Z,29.38
2023-04-15T06:01:43.980Z,31.45
2023-04-15T06:04:11.485Z,26.30
2023-04-15T06:06:38.392Z,27.15
2023-04-15T06:09:05.184Z,27.13
2023-04-15T06:11:31.857Z,27.40
2023-04-15T06:13:58.520Z,24.50
2023-04-15T06:16:25.241Z,23.77
2023-04-15T06:18:51.803Z,23.00
2023-04-15T06:21:18.601Z,23.33
2023-04-15T06:23:45.219Z,22.15
2023-04-15T06:26:11.728Z,24.35
2023-04-15T06:28:38.319Z,22.88
2023-04-15T06:31:04.968Z,22.98
2023-04-15T06:33:31.970Z,21.52
2023-04-15T06:35:58.557Z,20.00
2023-04-15T06:38:25.325Z,20.50
2023-04-15T06:40:51.852Z,21.13
2023-04-15T06:43:18.536Z,18.60
2023-04-15T06:45:45.862Z,19.17
2023-04-15T06:48:12.736Z,17.05
2023-04-15T06:50:39.291Z,17.17
2023-04-15T06:53:06.592Z,16.17
2023-04-15T06:55:33.900Z,18.30
2023-04-15T06:58:00.697Z,16.38
2023-04-15T07:00:28.616Z,15.90
2023-04-15T07:02:55.710Z,16.65
2023-04-15T07:05:22.581Z,15.52
2023-04-15T07:07:49.728Z,16.25
2023-04-15T07:10:16.681Z,16.83
2023-04-15T07:12:43.558Z,15.88
2023-04-15T07:15:10.688Z,16.58
2023-04-15T07:17:37.412Z,14.98
2023-04-15T07:20:04.946Z,16.15
2023-04-15T07:22:31.780Z,15.60
2023-04-15T07:24:58.611Z,16.38
2023-04-15T07:27:25.818Z,16.13
2023-04-15T07:29:52.385Z,16.42
2023-04-15T07:32:19.706Z,18.15
2023-04-15T07:34:47.171Z,17.00
2023-04-15T07:37:14.929Z,16.58
2023-04-15T07:39:41.775Z,18.70
2023-04-15T07:42:08.720Z,17.65
2023-04-15T07:44:35.646Z,21.85
2023-04-15T07:47:04.015Z,17.98
2023-04-15T07:49:30.792Z,16.60
2023-04-15T07:51:59.888Z,17.85
2023-04-15T07:54:27.321Z,21.15
2023-04-15T07:56:54.250Z,18.77
2023-04-15T07:59:21.472Z,18.98
2023-04-15T08:01:48.325Z,18.70
2023-04-15T08:04:15.799Z,19.55
2023-04-15T08:06:42.489Z,18.65
2023-04-15T08:09:08.976Z,21.63
2023-04-15T08:11:36.519Z,17.98
2023-04-15T08:14:03.009Z,19.17
2023-04-15T08:16:29.567Z,18.15
2023-04-15T08:18:57.811Z,16.95
2023-04-15T08:21:24.989Z,18.27
2023-04-15T08:23:54.739Z,17.92
2023-04-15T08:26:22.089Z,18.80
2023-04-15T08:28:49.393Z,17.63
2023-04-15T08:31:17.303Z,18.63
2023-04-15T08:33:44.169Z,17.42
2023-04-15T08:36:10.877Z,16.55
2023-04-15T08:38:37.632Z,16.80
2023-04-15T08:41:17.786Z,17.85
2023-04-15T08:43:52.951Z,17.50
2023-04-15T08:46:20.063Z,18.77
2023-04-15T08:48:48.033Z,19.15
2023-04-15T08:51:16.197Z,17.33
2023-04-15T08:53:47.290Z,17.75
2023-04-15T08:56:16.760Z,17.55
2023-04-15T08:58:46.748Z,18.02
2023-04-15T09:01:13.934Z,16.95
2023-04-15T09:03:42.057Z,17.52
2023-04-15T09:06:08.809Z,18.08
2023-04-15T09:08:35.829Z,17.98
2023-04-15T09:11:03.601Z,18.88
2023-04-15T09:13:30.464Z,18.63
2023-04-15T09:16:00.191Z,18.67
2023-04-15T09:18:31.019Z,18.27
2023-04-15T09:21:05.640Z,17.38
2023-04-15T09:23:32.595Z,19.42
2023-04-15T09:25:59.225Z,17.60
2023-04-15T09:28:27.006Z,19.17
2023-04-15T09:30:57.049Z,18.77
2023-04-15T09:33:26.237Z,16.33
2023-04-15T09:36:04.684Z,17.40
2023-04-15T09:38:32.127Z,20.33
2023-04-15T09:40:59.226Z,17.63
2023-04-15T09:43:39.985Z,17.80
2023-04-15T09:46:07.313Z,18.85
2023-04-15T09:48:33.900Z,19.60
2023-04-15T09:51:02.119Z,16.80
2023-04-15T09:53:31.175Z,17.48
2023-04-15T09:56:03.217Z,18.35
2023-04-15T09:58:35.026Z,16.42
2023-04-15T10:01:05.038Z,18.08
2023-04-15T10:03:35.368Z,16.63
2023-04-15T10:06:03.528Z,16.20
2023-04-15T10:08:33.600Z,16.38
2023-04-15T10:11:02.221Z,17.02
2023-04-15T10:13:33.314Z,18.92
2023-04-15T10:16:14.078Z,18.27
2023-04-15T10:18:46.205Z,19.08
2023-04-15T10:21:15.647Z,17.10
2023-04-15T10:23:42.849Z,17.40
2023-04-15T10:26:12.236Z,17.23
2023-04-15T10:28:38.905Z,17.17
2023-04-15T10:31:06.228Z,18.92
2023-04-15T10:33:33.762Z,18.87
2023-04-15T10:36:01.161Z,18.40
2023-04-15T10:38:36.680Z,17.85
2023-04-15T10:41:27.886Z,18.05
2023-04-15T10:44:01.080Z,18.70
2023-04-15T10:46:38.462Z,19.73
2023-04-15T10:49:17.102Z,16.48
2023-04-15T10:51:46.219Z,16.95
2023-04-15T10:54:25.113Z,17.88
2023-04-15T10:57:06.731Z,17.27
2023-04-15T10:59:37.419Z,18.80
2023-04-15T11:02:06.783Z,19.27
2023-04-15T11:04:53.345Z,20.52
2023-04-15T11:07:44.557Z,19.38
2023-04-15T11:10:14.171Z,18.38
2023-04-15T11:12:41.871Z,20.08
2023-04-15T11:15:40.885Z,20.85
2023-04-15T11:18:22.121Z,19.90
2023-04-15T11:20:59.588Z,18.35
2023-04-15T11:23:36.661Z,18.85
2023-04-15T11:26:06.807Z,19.65
2023-04-15T11:28:33.635Z,18.23
2023-04-15T11:31:07.132Z,18.23
2023-04-15T11:33:33.720Z,18.02
2023-04-15T11:36:01.433Z,18.85
2023-04-15T11:38:28.453Z,19.38
2023-04-15T11:40:55.392Z,17.25
2023-04-15T11:43:23.361Z,20.08
2023-04-15T11:46:00.066Z,19.70
2023-04-15T11:48:32.721Z,20.67
2023-04-15T11:51:07.204Z,19.58
2023-04-15T11:53:48.528Z,18.67
2023-04-15T11:56:28.862Z,20.02
2023-04-15T11:58:59.289Z,17.73
2023-04-15T12:01:35.995Z,16.90
2023-04-15T12:04:04.338Z,17.77
2023-04-15T12:06:35.140Z,17.92
2023-04-15T12:09:06.632Z,18.77
2023-04-15T12:11:44.093Z,18.73
2023-04-15T12:14:30.455Z,19.17
2023-04-15T12:17:02.704Z,18.25
2023-04-15T12:19:37.457Z,18.13
2023-04-15T12:22:06.585Z,18.05
2023-04-15T12:24:34.502Z,18.45
2023-04-15T12:27:07.566Z,19.73
2023-04-15T12:29:36.147Z,18.75
2023-04-15T12:32:07.696Z,17.92
2023-04-15T12:34:36.602Z,19.15
2023-04-15T12:37:05.322Z,21.25
2023-04-15T12:39:35.439Z,20.63
2023-04-15T12:42:03.081Z,18.05
2023-04-15T12:44:30.606Z,18.98
2023-04-15T12:46:57.592Z,18.77
2023-04-15T12:49:24.588Z,16.98
2023-04-15T12:51:53.851Z,19.83
2023-04-15T12:54:20.866Z,18.20
2023-04-15T12:56:49.708Z,20.42
2023-04-15T12:59:20.166Z,20.75
2023-04-15T13:01:48.325Z,19.23
2023-04-15T13:04:16.403Z,20.13
2023-04-15T13:06:43.710Z,20.25
2023-04-15T13:09:10.696Z,18.38
2023-04-15T13:11:37.602Z,20.52
2023-04-15T13:14:07.099Z,18.52
2023-04-15T13:16:34.462Z,19.70
2023-04-15T13:19:02.328Z,21.02
2023-04-15T13:21:29.453Z,21.30
2023-04-15T13:23:56.192Z,19.85
2023-04-15T13:26:22.772Z,18.70
2023-04-15T13:28:49.325Z,20.85
2023-04-15T13:31:16.046Z,18.73
2023-04-15T13:33:42.672Z,18.08
2023-04-15T13:36:09.456Z,18.00
2023-04-15T13:38:36.279Z,18.40
2023-04-15T13:41:02.811Z,18.90
2023-04-15T13:43:29.413Z,19.58
2023-04-15T13:45:56.572Z,20.25
2023-04-15T13:48:23.180Z,19.25
2023-04-15T13:50:50.424Z,19.00
2023-04-15T13:53:17.016Z,19.00
2023-04-15T13:55:43.834Z,19.77
2023-04-15T13:58:11.356Z,18.65
2023-04-15T14:00:38.052Z,19.75
2023-04-15T14:03:05.167Z,20.10
2023-04-15T14:05:32.474Z,19.00
2023-04-15T14:07:59.942Z,20.83
2023-04-15T14:10:26.450Z,21.02
2023-04-15T14:12:53.386Z,20.80
2023-04-15T14:15:19.985Z,20.88
2023-04-15T14:17:46.615Z,21.52
2023-04-15T14:20:14.995Z,20.45
2023-04-15T14:22:42.937Z,20.60
2023-04-15T14:25:15.122Z,19.88
2023-04-15T14:27:51.409Z,21.42
2023-04-15T14:30:18.596Z,20.77
2023-04-15T14:32:46.181Z,22.85
2023-04-15T14:35:13.818Z,20.08
2023-04-15T14:37:41.648Z,19.02
2023-04-15T14:40:09.088Z,18.85
2023-04-15T14:42:37.228Z,21.52
2023-04-15T14:45:04.612Z,20.25
2023-04-15T14:47:31.766Z,19.27
2023-04-15T14:49:59.672Z,19.63
2023-04-15T14:52:26.695Z,19.95
2023-04-15T14:54:53.904Z,20.38
2023-04-15T14:57:21.097Z,20.63
2023-04-15T14:59:48.734Z,23.17
2023-04-15T15:02:31.580Z,19.65
2023-04-15T15:05:04.656Z,19.75
2023-04-15T15:07:31.522Z,20.63
2023-04-15T15:09:58.087Z,21.58
2023-04-15T15:12:24.770Z,19.58
2023-04-15T15:14:51.351Z,19.83
2023-04-15T15:17:18.578Z,20.58
2023-04-15T15:19:45.799Z,21.60
2023-04-15T15:22:13.230Z,33.15
2023-04-15T15:24:39.938Z,37.55
2023-04-15T15:27:06.588Z,26.02
2023-04-15T15:29:33.079Z,22.92
2023-04-15T15:31:59.614Z,19.40
2023-04-15T15:34:26.545Z,20.77
2023-04-15T15:36:54.977Z,20.23
2023-04-15T15:39:23.307Z,23.00
2023-04-15T15:41:50.536Z,27.08
2023-04-15T15:44:17.104Z,38.33
2023-04-15T15:46:43.841Z,19.85
2023-04-15T15:49:11.403Z,19.30
2023-04-15T15:51:38.103Z,19.58
2023-04-15T15:54:04.802Z,19.05
2023-04-15T15:56:31.420Z,22.15
2023-04-15T15:58:57.998Z,19.25
2023-04-15T16:01:25.435Z,17.85
2023-04-15T16:03:52.203Z,40.90
2023-04-15T16:06:18.914Z,26.80
2023-04-15T16:08:45.645Z,20.23
2023-04-15T16:11:12.178Z,20.63
2023-04-15T16:13:38.767Z,19.98
2023-04-15T16:16:05.685Z,17.45
2023-04-15T16:18:33.894Z,17.67
2023-04-15T16:21:01.780Z,20.73
2023-04-15T16:23:28.434Z,19.38
2023-04-15T16:25:55.203Z,17.48
2023-04-15T16:28:27.024Z,18.80
2023-04-15T16:30:56.226Z,18.75
2023-04-15T16:33:22.880Z,18.00
2023-04-15T16:35:49.402Z,20.35
2023-04-15T16:38:16.348Z,18.52
2023-04-15T16:40:42.863Z,18.10
2023-04-15T16:43:11.188Z,17.27
2023-04-15T16:45:38.184Z,17.77
2023-04-15T16:48:04.987Z,23.17
2023-04-15T16:50:31.570Z,18.35
2023-04-15T16:52:58.101Z,17.50
2023-04-15T16:55:24.650Z,19.25
2023-04-15T16:58:01.457Z,18.48
2023-04-15T17:00:31.617Z,18.55
2023-04-15T17:03:00.140Z,16.23
2023-04-15T17:05:27.635Z,17.90
2023-04-15T17:07:54.748Z,17.75
2023-04-15T17:10:21.517Z,18.67
2023-04-15T17:12:49.744Z,17.33
2023-04-15T17:15:16.453Z,19.48
2023-04-15T17:17:43.071Z,18.33
2023-04-15T17:20:10.529Z,19.52
2023-04-15T17:22:37.163Z,19.75
2023-04-15T17:25:04.617Z,20.35
2023-04-15T17:27:31.496Z,18.20
2023-04-15T17:29:58.388Z,19.40
2023-04-15T17:32:31.408Z,19.63
2023-04-15T17:34:58.004Z,19.67
2023-04-15T17:37:24.679Z,19.55
2023-04-15T17:39:52.146Z,19.65
2023-04-15T17:42:18.765Z,21.02
2023-04-15T17:44:45.698Z,21.42
2023-04-15T17:47:12.326Z,20.05
2023-04-15T17:49:38.902Z,19.98
2023-04-15T17:52:05.787Z,23.23
2023-04-15T17:54:32.383Z,20.33
2023-04-15T17:56:59.989Z,20.90
2023-04-15T17:59:27.553Z,20.17
2023-04-15T18:01:54.357Z,23.10
2023-04-15T18:04:22.748Z,20.90
2023-04-15T18:06:51.983Z,20.77
2023-04-15T18:09:18.562Z,20.77
2023-04-15T18:11:47.261Z,20.13
2023-04-15T18:14:15.705Z,22.80
2023-04-15T18:16:51.202Z,20.95
2023-04-15T18:19:17.974Z,21.27
2023-04-15T18:21:46.141Z,20.25
2023-04-15T18:24:12.826Z,21.10
2023-04-15T18:26:39.379Z,21.00
2023-04-15T18:29:06.034Z,21.42
2023-04-15T18:31:33.108Z,20.92
2023-04-15T18:33:59.618Z,22.45
2023-04-15T18:36:26.582Z,22.27
2023-04-15T18:38:53.086Z,22.33
2023-04-15T18:41:19.597Z,22.73
2023-04-15T18:43:46.285Z,22.83
2023-04-15T18:46:13.588Z,23.95
2023-04-15T18:48:40.329Z,25.42
2023-04-15T18:51:06.825Z,24.63
2023-04-15T18:53:33.336Z,25.00
2023-04-15T18:56:02.790Z,23.65
2023-04-15T18:58:29.699Z,22.95
2023-04-15T19:01:16.279Z,23.45
2023-04-15T19:03:42.928Z,25.38
2023-04-15T19:06:09.463Z,25.90
2023-04-15T19:08:36.513Z,23.55
2023-04-15T19:11:03.045Z,22.67
2023-04-15T19:13:29.751Z,22.73
2023-04-15T19:15:56.482Z,23.73
2023-04-15T19:18:23.137Z,21.45
2023-04-15T19:20:52.054Z,23.42
2023-04-15T19:23:18.762Z,21.65
2023-04-15T19:25:45.325Z,20.73
2023-04-15T19:28:11.848Z,22.25
2023-04-15T19:30:38.485Z,24.00
2023-04-15T19:33:05.375Z,21.33
2023-04-15T19:35:32.292Z,21.58
2023-04-15T19:37:59.242Z,23.25
2023-04-15T19:40:25.957Z,22.20
2023-04-15T19:42:52.667Z,23.70
2023-04-15T19:45:19.283Z,21.75
2023-04-15T19:47:46.204Z,22.90
2023-04-15T19:50:12.939Z,22.50
2023-04-15T19:52:39.655Z,22.40
2023-04-15T19:55:06.486Z,23.98
2023-04-15T19:57:33.922Z,22.70
2023-04-15T20:00:00.683Z,23.58
2023-04-15T20:02:29.116Z,24.08
2023-04-15T20:04:55.812Z,23.10
2023-04-15T20:07:22.442Z,22.40
2023-04-15T20:09:49.172Z,24.38
2023-04-15T20:12:50.487Z,23.23
2023-04-15T20:15:03.381Z,27.05
2023-04-15T20:17:33.016Z,23.40
2023-04-15T20:19:59.737Z,25.05
2023-04-15T20:22:26.477Z,25.23
2023-04-15T20:24:53.214Z,23.15
2023-04-15T20:27:22.997Z,24.45
2023-04-15T20:29:50.443Z,22.80
2023-04-15T20:32:17.872Z,24.10
2023-04-15T20:34:44.753Z,23.88
2023-04-15T20:37:12.313Z,26.40
2023-04-15T20:39:40.601Z,24.00
2023-04-15T20:42:10.646Z,25.65
2023-04-15T20:44:40.668Z,24.60
2023-04-15T20:47:07.700Z,25.83
2023-04-15T20:49:38.811Z,27.10
2023-04-15T20:52:07.918Z,24.92
2023-04-15T20:54:34.830Z,26.20
2023-04-15T20:57:01.771Z,27.40
2023-04-15T20:59:28.903Z,26.88
2023-04-15T21:01:57.008Z,27.48
2023-04-15T21:04:24.470Z,28.08
2023-04-15T21:06:52.121Z,27.85
2023-04-15T21:09:19.036Z,26.92
2023-04-15T21:12:00.313Z,27.17
2023-04-15T21:14:28.129Z,30.67
2023-04-15T21:16:54.781Z,27.88
2023-04-15T21:19:21.415Z,26.45
2023-04-15T21:21:48.048Z,28.33
2023-04-15T21:24:14.816Z,27.15
2023-04-15T21:26:41.566Z,27.38
2023-04-15T21:29:10.650Z,26.95
2023-04-15T21:31:39.446Z,28.33
2023-04-15T21:34:06.283Z,26.30
2023-04-15T21:36:33.881Z,29.48
2023-04-15T21:39:00.789Z,30.30
2023-04-15T21:41:27.408Z,31.20
2023-04-15T21:43:54.117Z,28.80
2023-04-15T21:46:24.430Z,30.13
2023-04-15T21:48:54.842Z,30.15
2023-04-15T21:51:21.821Z,28.80
2023-04-15T21:53:48.716Z,32.90
2023-04-15T21:56:15.431Z,29.80
2023-04-15T21:58:42.891Z,29.65
2023-04-15T22:01:09.660Z,32.28
2023-04-15T22:03:36.581Z,29.17
2023-04-15T22:06:03.890Z,30.58
2023-04-15T22:08:38.268Z,30.92
2023-04-15T22:11:20.920Z,31.27
2023-04-15T22:13:47.608Z,30.40
2023-04-15T22:16:14.139Z,33.55
2023-04-15T22:18:40.883Z,30.65
2023-04-15T22:21:07.917Z,31.08
2023-04-15T22:23:34.556Z,30.85
2023-04-15T22:26:01.256Z,29.52
2023-04-15T22:28:27.859Z,30.52
2023-04-15T22:30:54.659Z,31.83
2023-04-15T22:33:21.476Z,30.88
2023-04-15T22:35:48.164Z,29.42
2023-04-15T22:38:15.918Z,32.22
2023-04-15T22:40:42.528Z,29.08
2023-04-15T22:43:09.120Z,29.35
2023-04-15T22:45:35.986Z,31.55
2023-04-15T22:48:02.880Z,28.42
2023-04-15T22:50:29.504Z,29.98
2023-04-15T22:52:56.095Z,28.77
2023-04-15T22:55:22.948Z,28.50
2023-04-15T22:57:49.534Z,30.13
2023-04-15T23:00:16.309Z,27.42
2023-04-15T23:02:43.005Z,27.15
2023-04-15T23:05:13.387Z,29.52
2023-04-15T23:07:40.313Z,29.67
2023-04-15T23:10:08.033Z,27.75
2023-04-15T23:12:34.787Z,30.80
2023-04-15T23:15:01.530Z,31.58
2023-04-15T23:17:28.039Z,29.58
2023-04-15T23:19:54.676Z,27.50
2023-04-15T23:22:21.215Z,28.35
2023-04-15T23:24:47.716Z,31.75
2023-04-15T23:27:14.268Z,29.88
2023-04-15T23:29:40.876Z,27.58
2023-04-15T23:32:07.394Z,28.00
2023-04-15T23:34:33.960Z,28.57
2023-04-15T23:37:00.832Z,29.02
2023-04-15T23:39:28.518Z,29.58
2023-04-15T23:41:56.241Z,29.77
2023-04-15T23:44:23.536Z,31.15
2023-04-15T23:46:51.231Z,32.37
2023-04-15T23:49:20.098Z,30.90
2023-04-15T23:51:46.997Z,28.65
2023-04-15T23:54:14.879Z,30.77
2023-04-15T23:56:41.412Z,29.85
2023-04-15T23:59:08.138Z,32.75
